Time;durP1;ratioP1;P1;durP2;ratioP2;P2;SDS_P1;SDS_P2;PMS_P1;PMS_P2;Temp;Humidity;BMP_temperature;BMP_pressure;BME280_temperature;BME280_humidity;BME280_pressure;Samples;Min_cycle;Max_cycle;Signal;HPM_P1;HPM_P2
2023/06/09 00:00:41;;;;;;;21.60;8.70;;;;;;;13.71;100.00;101222.14;105613;1260;60373;-43
2023/06/09 00:03:09;;;;;;;22.60;8.50;;;;;;;13.70;100.00;101215.23;105669;1254;72686;-42
2023/06/09 00:05:39;;;;;;;13.00;7.90;;;;;;;13.69;100.00;101206.73;105661;1259;63927;-42
2023/06/09 00:08:07;;;;;;;23.60;8.00;;;;;;;13.68;100.00;101203.13;105618;1259;72631;-43
2023/06/09 00:10:35;;;;;;;24.90;7.80;;;;;;;13.66;100.00;101204.54;105610;1257;60637;-42
2023/06/09 00:13:03;;;;;;;17.80;8.00;;;;;;;13.64;100.00;101198.52;105587;1257;60774;-42
2023/06/09 00:15:30;;;;;;;20.50;8.10;;;;;;;13.61;100.00;101191.98;105658;1254;73815;-43
2023/06/09 00:18:02;;;;;;;17.80;8.20;;;;;;;13.60;100.00;101189.41;105619;1259;64000;-42
2023/06/09 00:20:33;;;;;;;17.00;8.10;;;;;;;13.58;100.00;101181.80;105623;1254;71424;-42
2023/06/09 00:23:01;;;;;;;13.20;7.50;;;;;;;13.57;100.00;101181.48;105675;1254;61649;-42
2023/06/09 00:25:29;;;;;;;16.60;7.30;;;;;;;13.58;100.00;101179.36;105399;1254;299846;-44
2023/06/09 00:27:57;;;;;;;21.00;7.50;;;;;;;13.58;100.00;101174.34;105689;1256;73840;-42
2023/06/09 00:31:16;;;;;;;23.90;8.40;;;;;;;13.62;100.00;101190.55;102775;1290;599609;-43
2023/06/09 00:33:45;;;;;;;16.60;7.70;;;;;;;13.63;100.00;101170.95;105136;1270;61591;-43
2023/06/09 00:36:14;;;;;;;22.40;7.50;;;;;;;13.62;100.00;101163.34;105065;1269;59194;-43
2023/06/09 00:38:42;;;;;;;22.60;8.10;;;;;;;13.59;100.00;101162.19;105015;1269;69946;-45
2023/06/09 00:41:09;;;;;;;19.10;7.60;;;;;;;13.55;100.00;101160.52;104941;1270;65256;-46
2023/06/09 00:43:37;;;;;;;22.00;8.00;;;;;;;13.50;100.00;101154.91;105122;1270;70916;-44
2023/06/09 00:46:06;;;;;;;18.50;7.70;;;;;;;13.45;100.00;101153.59;104971;1265;188205;-44
2023/06/09 00:48:36;;;;;;;17.30;7.60;;;;;;;13.47;100.00;101150.97;105255;1267;59231;-43
2023/06/09 00:51:04;;;;;;;16.10;8.20;;;;;;;13.45;100.00;101149.08;105174;1263;72368;-45
2023/06/09 00:53:32;;;;;;;14.60;7.50;;;;;;;13.43;100.00;101144.80;105205;1269;65397;-43
2023/06/09 00:56:00;;;;;;;23.90;8.30;;;;;;;13.41;100.00;101140.66;105242;1267;72622;-44
2023/06/09 00:58:27;;;;;;;21.70;7.80;;;;;;;13.39;100.00;101140.35;105202;1270;60459;-44
2023/06/09 01:00:57;;;;;;;21.20;7.20;;;;;;;13.37;100.00;101138.82;105110;1267;60707;-43
2023/06/09 01:03:26;;;;;;;15.90;7.40;;;;;;;13.36;100.00;101135.71;105213;1267;71867;-43
2023/06/09 01:06:02;;;;;;;21.50;8.30;;;;;;;13.32;100.00;101136.84;105258;1266;63932;-44
2023/06/09 01:08:52;;;;;;;17.80;6.80;;;;;;;13.27;100.00;101134.16;105224;1267;71906;-44
2023/06/09 01:11:30;;;;;;;18.50;7.60;;;;;;;13.22;100.00;101139.61;105184;1266;60386;-43
2023/06/09 01:14:27;;;;;;;16.00;7.70;;;;;;;13.16;100.00;101138.85;105194;1269;59506;-41
2023/06/09 01:17:03;;;;;;;37.30;7.70;;;;;;;13.11;100.00;101135.84;105175;1270;70833;-43
2023/06/09 01:19:32;;;;;;;18.30;7.50;;;;;;;13.07;100.00;101130.37;105175;1270;65142;-43
2023/06/09 01:22:03;;;;;;;15.40;6.80;;;;;;;13.05;100.00;101128.84;105179;1270;71401;-42
2023/06/09 01:25:01;;;;;;;20.20;7.80;;;;;;;13.04;100.00;101129.89;104962;1268;61638;-42
2023/06/09 01:27:29;;;;;;;14.80;7.00;;;;;;;13.05;100.00;101128.33;104833;1269;59743;-41
2023/06/09 01:29:58;;;;;;;19.40;7.30;;;;;;;13.05;100.00;101126.23;104920;1270;72207;-43
2023/06/09 01:32:26;;;;;;;13.00;6.30;;;;;;;13.02;100.00;101124.39;104850;1271;65363;-42
2023/06/09 01:34:54;;;;;;;12.90;7.40;;;;;;;13.01;100.00;101121.29;105165;1264;71382;-41
2023/06/09 01:37:21;;;;;;;19.90;6.20;;;;;;;13.04;100.00;101113.80;105159;1269;60860;-42
2023/06/09 01:39:50;;;;;;;16.80;6.40;;;;;;;13.08;100.00;101111.63;105158;1269;59699;-42
2023/06/09 01:42:18;;;;;;;14.40;6.30;;;;;;;13.14;100.00;101109.45;105183;1264;71774;-43
2023/06/09 01:44:45;;;;;;;11.00;6.00;;;;;;;13.16;100.00;101104.21;104846;1264;65175;-41
2023/06/09 01:47:15;;;;;;;12.80;6.30;;;;;;;13.20;100.00;101104.30;105160;1268;72030;-43
2023/06/09 01:49:54;;;;;;;16.50;6.70;;;;;;;13.24;100.00;101101.97;105032;1264;61598;-42
2023/06/09 01:52:29;;;;;;;12.60;6.40;;;;;;;13.26;100.00;101097.95;105005;1270;59635;-42
2023/06/09 01:54:58;;;;;;;13.80;6.50;;;;;;;13.26;100.00;101095.87;105232;1261;71727;-42
2023/06/09 01:57:29;;;;;;;12.40;6.30;;;;;;;13.27;100.00;101095.52;105307;1262;64229;-42
2023/06/09 02:00:01;;;;;;;12.80;6.50;;;;;;;13.27;100.00;101093.79;105228;1267;71437;-43
2023/06/09 02:02:40;;;;;;;12.70;6.30;;;;;;;13.29;100.00;101096.50;105190;1260;60686;-43
2023/06/09 02:05:08;;;;;;;10.80;6.20;;;;;;;13.32;100.00;101094.20;105226;1266;59633;-41
2023/06/09 02:07:39;;;;;;;12.70;6.50;;;;;;;13.35;100.00;101091.36;105625;1258;73051;-42
2023/06/09 02:10:08;;;;;;;10.10;6.70;;;;;;;13.40;100.00;101089.54;105632;1258;64341;-43
2023/06/09 02:12:36;;;;;;;14.60;6.70;;;;;;;13.42;100.00;101087.77;105663;1260;71404;-43
2023/06/09 02:15:05;;;;;;;15.60;7.00;;;;;;;13.44;100.00;101084.79;105669;1257;60374;-42
2023/06/09 02:17:33;;;;;;;12.70;6.60;;;;;;;13.49;100.00;101086.25;105643;1260;59568;-42
2023/06/09 02:20:05;;;;;;;12.50;6.70;;;;;;;13.54;100.00;101089.13;105627;1258;72034;-42
2023/06/09 02:22:33;;;;;;;17.20;6.20;;;;;;;13.61;100.00;101088.27;105596;1264;63973;-42
2023/06/09 02:25:03;;;;;;;15.00;6.80;;;;;;;13.69;100.00;101089.67;105554;1258;72673;-42
2023/06/09 02:27:31;;;;;;;13.30;6.10;;;;;;;13.76;100.00;101085.34;105645;1260;61709;-42
2023/06/09 02:29:59;;;;;;;18.80;7.00;;;;;;;13.84;100.00;101080.33;105554;1264;59541;-42
2023/06/09 02:32:27;;;;;;;14.50;7.10;;;;;;;13.90;100.00;101083.13;105583;1260;73072;-41
2023/06/09 02:34:54;;;;;;;11.90;6.80;;;;;;;13.97;100.00;101077.96;105594;1260;62919;-43
2023/06/09 02:37:22;;;;;;;13.80;7.30;;;;;;;14.04;100.00;101074.66;105605;1257;71731;-43
2023/06/09 02:39:50;;;;;;;13.40;6.80;;;;;;;14.13;100.00;101076.05;105571;1263;60600;-43
2023/06/09 02:42:18;;;;;;;12.80;7.00;;;;;;;14.22;100.00;101079.63;105571;1261;59540;-42
2023/06/09 02:44:48;;;;;;;24.20;7.30;;;;;;;14.32;100.00;101075.76;105626;1259;71465;-43
2023/06/09 02:47:16;;;;;;;14.50;6.80;;;;;;;14.42;100.00;101080.89;105607;1260;65251;-42
2023/06/09 02:49:44;;;;;;;13.50;6.90;;;;;;;14.54;100.00;101087.55;105657;1258;72732;-44
2023/06/09 02:52:12;;;;;;;24.70;6.60;;;;;;;14.64;100.00;101085.21;105549;1264;61621;-44
2023/06/09 02:54:40;;;;;;;14.20;6.30;;;;;;;14.75;100.00;101090.70;105598;1256;59982;-42
2023/06/09 02:57:09;;;;;;;14.30;7.30;;;;;;;14.86;100.00;101088.50;105641;1260;72993;-43
2023/06/09 02:59:39;;;;;;;14.00;5.80;;;;;;;14.98;100.00;101090.98;105567;1257;64330;-42
2023/06/09 03:02:07;;;;;;;11.70;6.50;;;;;;;15.09;100.00;101090.51;105638;1258;72815;-44
2023/06/09 03:04:35;;;;;;;16.20;6.40;;;;;;;15.19;100.00;101095.09;105608;1261;60642;-44
2023/06/09 03:07:04;;;;;;;12.20;6.10;;;;;;;15.29;100.00;101095.89;105626;1257;59531;-43
2023/06/09 03:09:31;;;;;;;18.00;7.00;;;;;;;15.37;100.00;101098.96;105411;1262;71802;-45
2023/06/09 03:12:02;;;;;;;11.00;6.60;;;;;;;15.44;100.00;101098.61;105642;1254;65287;-48
2023/06/09 03:14:31;;;;;;;11.80;6.50;;;;;;;15.50;100.00;101102.59;105892;1257;71892;-50
2023/06/09 03:16:59;;;;;;;12.70;5.80;;;;;;;15.56;100.00;101108.52;105842;1254;61720;-46
2023/06/09 03:19:28;;;;;;;15.10;5.90;;;;;;;15.61;100.00;101113.55;105929;1252;59532;-44
2023/06/09 03:21:57;;;;;;;16.90;5.60;;;;;;;15.68;100.00;101118.44;105889;1254;71947;-47
2023/06/09 03:24:25;;;;;;;10.00;5.90;;;;;;;15.73;100.00;101122.80;105710;1254;63474;-43
2023/06/09 03:26:53;;;;;;;11.10;6.10;;;;;;;15.80;100.00;101131.82;105894;1257;70887;-43
2023/06/09 03:29:24;;;;;;;14.80;5.60;;;;;;;15.89;100.00;101138.02;105940;1253;61643;-43
2023/06/09 03:31:52;;;;;;;10.10;6.20;;;;;;;15.98;100.00;101148.02;105687;1254;59985;-43
2023/06/09 03:34:20;;;;;;;11.70;5.50;;;;;;;16.11;100.00;101154.44;105685;1257;73442;-43
2023/06/09 03:36:48;;;;;;;14.00;5.80;;;;;;;16.26;100.00;101159.55;105882;1254;65272;-43
2023/06/09 03:39:17;;;;;;;14.90;5.90;;;;;;;16.47;100.00;101167.08;105878;1253;71433;-43
2023/06/09 03:41:44;;;;;;;11.10;5.00;;;;;;;16.78;100.00;101175.14;105687;1254;61610;-43
2023/06/09 03:44:12;;;;;;;16.60;6.00;;;;;;;17.16;100.00;101185.06;105715;1254;59697;-44
2023/06/09 03:46:41;;;;;;;23.90;6.20;;;;;;;17.55;100.00;101196.95;105870;1255;71823;-44
2023/06/09 03:49:08;;;;;;;12.50;5.50;;;;;;;17.92;100.00;101216.39;105895;1253;65284;-43
2023/06/09 03:51:37;;;;;;;8.40;5.80;;;;;;;18.30;100.00;101242.79;105874;1254;72675;-44
2023/06/09 03:54:05;;;;;;;16.30;6.40;;;;;;;18.71;100.00;101277.56;105892;1254;60017;-45
2023/06/09 03:56:33;;;;;;;14.80;6.60;;;;;;;19.07;100.00;101317.59;105672;1255;59536;-43
2023/06/09 03:59:01;;;;;;;13.70;6.90;;;;;;;19.42;100.00;101370.61;105668;1254;71784;-43
2023/06/09 04:01:30;;;;;;;20.20;7.00;;;;;;;19.73;100.00;101427.95;105924;1254;63197;-44
2023/06/09 04:03:59;;;;;;;19.10;7.20;;;;;;;20.05;100.00;101467.82;105727;1254;72657;-43
2023/06/09 04:06:28;;;;;;;23.40;7.80;;;;;;;20.39;100.00;101458.14;105898;1253;59957;-44
2023/06/09 04:08:56;;;;;;;12.50;7.10;;;;;;;20.70;100.00;101376.47;105911;1253;59965;-45
2023/06/09 04:11:23;;;;;;;13.50;7.20;;;;;;;20.96;100.00;101214.25;105845;1257;73102;-44
2023/06/09 04:13:52;;;;;;;19.80;7.20;;;;;;;21.20;100.00;101008.80;105692;1257;64173;-44
2023/06/09 04:16:20;;;;;;;22.50;8.20;;;;;;;21.39;100.00;100824.88;105902;1254;71411;-42
2023/06/09 04:18:48;;;;;;;17.00;8.20;;;;;;;21.59;100.00;100690.77;105886;1254;60028;-45
2023/06/09 04:21:17;;;;;;;22.70;8.00;;;;;;;21.83;100.00;100586.80;105677;1257;59645;-44
2023/06/09 04:23:44;;;;;;;17.20;7.50;;;;;;;21.99;100.00;100526.58;105732;1259;73166;-43
2023/06/09 04:26:13;;;;;;;23.60;7.40;;;;;;;22.20;100.00;100514.69;105915;1256;64151;-43
2023/06/09 04:28:41;;;;;;;18.30;7.20;;;;;;;22.43;100.00;100518.09;105911;1254;72626;-44
2023/06/09 04:31:10;;;;;;;17.40;6.30;;;;;;;22.67;100.00;100533.86;105898;1253;60013;-44
2023/06/09 04:33:39;;;;;;;14.30;6.40;;;;;;;22.84;100.00;100554.05;105725;1254;59538;-45
2023/06/09 04:36:07;;;;;;;22.20;6.60;;;;;;;23.02;100.00;100574.94;105825;1254;71890;-44
2023/06/09 04:38:35;;;;;;;14.30;6.60;;;;;;;23.23;100.00;100605.04;105731;1254;64653;-44
2023/06/09 04:41:05;;;;;;;15.40;5.70;;;;;;;23.37;100.00;100632.98;105815;1254;71411;-43
2023/06/09 04:43:36;;;;;;;22.30;5.80;;;;;;;23.54;100.00;100645.20;105867;1254;60472;-44
2023/06/09 04:46:06;;;;;;;17.20;6.60;;;;;;;23.73;100.00;100664.10;105923;1257;60324;-44
2023/06/09 04:48:35;;;;;;;18.40;6.60;;;;;;;23.87;100.00;100690.08;105895;1257;71927;-44
2023/06/09 04:51:03;;;;;;;26.50;7.00;;;;;;;23.89;100.00;100717.02;105821;1254;64387;-44
2023/06/09 04:53:35;;;;;;;18.40;6.20;;;;;;;23.98;100.00;100732.33;105883;1254;71530;-44
2023/06/09 04:56:03;;;;;;;21.50;6.80;;;;;;;24.15;100.00;100754.25;105675;1257;60396;-45
2023/06/09 04:58:31;;;;;;;17.30;6.30;;;;;;;24.36;100.00;100760.85;105749;1254;60505;-43
2023/06/09 05:01:00;;;;;;;19.30;7.10;;;;;;;24.58;100.00;100784.66;105886;1257;72183;-44
2023/06/09 05:03:28;;;;;;;24.90;6.90;;;;;;;24.78;100.00;100812.92;105945;1254;63983;-44
2023/06/09 05:05:56;;;;;;;23.10;6.60;;;;;;;24.88;100.00;100844.64;105897;1254;71785;-43
2023/06/09 05:08:26;;;;;;;19.60;6.40;;;;;;;24.90;100.00;100865.11;105918;1252;60482;-44
2023/06/09 05:10:53;;;;;;;18.50;5.70;;;;;;;25.02;100.00;100875.58;105703;1256;60349;-44
2023/06/09 05:13:22;;;;;;;18.20;6.30;;;;;;;25.19;100.00;100879.85;105703;1254;72996;-43
2023/06/09 05:15:50;;;;;;;26.70;7.00;;;;;;;25.33;100.00;100883.71;105850;1254;64427;-45
2023/06/09 05:18:19;;;;;;;21.90;6.30;;;;;;;25.49;100.00;100887.20;105649;1254;71359;-44
2023/06/09 05:20:47;;;;;;;20.30;6.70;;;;;;;25.70;100.00;100892.87;105914;1252;60527;-45
2023/06/09 05:23:16;;;;;;;11.80;6.50;;;;;;;25.88;96.89;100879.84;105926;1253;60422;-43
2023/06/09 05:25:44;;;;;;;15.90;6.20;;;;;;;25.87;90.85;100890.00;105908;1254;72665;-44
2023/06/09 05:28:12;;;;;;;17.20;6.80;;;;;;;25.90;83.15;100884.09;105694;1259;65253;-44
2023/06/09 05:30:40;;;;;;;17.20;6.30;;;;;;;25.90;77.65;100894.02;105660;1259;72732;-45
2023/06/09 05:33:09;;;;;;;22.10;6.30;;;;;;;26.01;78.52;100907.81;105894;1253;61871;-45
2023/06/09 05:35:37;;;;;;;24.00;6.40;;;;;;;26.23;77.35;100902.29;105855;1254;60336;-44
2023/06/09 05:38:06;;;;;;;20.40;5.90;;;;;;;26.51;71.51;100866.88;105907;1257;72220;-43
2023/06/09 05:40:33;;;;;;;17.00;5.90;;;;;;;26.69;67.63;100856.07;105896;1253;63755;-44
2023/06/09 05:43:01;;;;;;;22.30;6.30;;;;;;;26.85;67.25;100871.11;105794;1257;71424;-43
2023/06/09 05:45:29;;;;;;;17.50;6.30;;;;;;;27.01;65.63;100849.25;105871;1252;60527;-44
2023/06/09 05:47:56;;;;;;;19.00;6.20;;;;;;;27.23;63.60;100826.02;105905;1257;60424;-44
2023/06/09 05:50:24;;;;;;;15.30;6.10;;;;;;;27.34;61.11;100791.84;105664;1254;72603;-43
2023/06/09 05:52:52;;;;;;;16.60;5.50;;;;;;;27.47;57.69;100718.79;105701;1257;65375;-45
2023/06/09 05:55:19;;;;;;;14.80;5.00;;;;;;;27.64;57.43;100747.52;105785;1257;71424;-44
2023/06/09 05:57:48;;;;;;;20.60;5.80;;;;;;;27.85;55.96;100709.31;105881;1254;60597;-45
2023/06/09 06:00:17;;;;;;;21.70;5.20;;;;;;;27.97;53.51;100614.57;105874;1257;60463;-41
2023/06/09 06:02:45;;;;;;;30.60;5.80;;;;;;;27.95;52.97;100622.17;105812;1254;72727;-43
2023/06/09 06:05:12;;;;;;;16.30;5.20;;;;;;;27.90;53.43;100678.57;105924;1256;63926;-43
2023/06/09 06:07:41;;;;;;;12.80;4.40;;;;;;;28.04;52.84;100659.10;105879;1256;71358;-45
2023/06/09 06:10:09;;;;;;;46.70;5.20;;;;;;;28.06;52.08;100626.33;105892;1256;60510;-43
2023/06/09 06:12:38;;;;;;;13.90;5.00;;;;;;;28.01;52.31;100665.23;105908;1256;60361;-42
2023/06/09 06:15:07;;;;;;;23.20;4.40;;;;;;;27.95;51.60;100632.23;105903;1254;72560;-43
2023/06/09 06:17:35;;;;;;;19.20;4.00;;;;;;;27.91;51.10;100612.20;105914;1257;64080;-43
2023/06/09 06:20:05;;;;;;;12.90;4.00;;;;;;;27.92;50.53;100585.52;105890;1257;71402;-41
2023/06/09 06:22:33;;;;;;;11.50;3.50;;;;;;;28.04;49.57;100530.91;105939;1257;60517;-42
2023/06/09 06:25:01;;;;;;;14.50;3.80;;;;;;;28.15;48.47;100451.04;105898;1257;60872;-43
2023/06/09 06:27:29;;;;;;;13.20;2.70;;;;;;;28.13;46.65;100312.83;105858;1254;72544;-42
2023/06/09 06:29:57;;;;;;;8.70;2.30;;;;;;;28.02;44.36;100100.60;105862;1254;65262;-43
2023/06/09 06:32:25;;;;;;;10.70;2.60;;;;;;;27.95;44.93;100160.52;105842;1254;71443;-42
2023/06/09 06:34:53;;;;;;;17.00;3.00;;;;;;;27.95;44.80;100176.25;105904;1256;60894;-42
2023/06/09 06:37:22;;;;;;;13.00;3.30;;;;;;;27.94;43.99;100127.05;105906;1254;60437;-45
2023/06/09 06:39:50;;;;;;;10.90;2.90;;;;;;;27.96;44.77;100221.36;105866;1257;73867;-43
2023/06/09 06:42:17;;;;;;;8.40;3.40;;;;;;;28.05;45.95;100361.13;105817;1253;63930;-44
2023/06/09 06:44:54;;;;;;;20.20;3.40;;;;;;;28.13;45.50;100340.84;105789;1253;71446;-44
2023/06/09 06:47:24;;;;;;;10.10;2.80;;;;;;;28.22;45.37;100308.29;105883;1256;60597;-43
2023/06/09 06:49:52;;;;;;;33.60;4.20;;;;;;;28.24;45.25;100314.48;105903;1256;60392;-44
2023/06/09 06:52:20;;;;;;;20.40;3.50;;;;;;;28.26;45.14;100326.75;105798;1257;73893;-44
2023/06/09 06:54:47;;;;;;;21.40;3.00;;;;;;;28.12;42.49;100022.85;105885;1254;64001;-45
2023/06/09 06:57:15;;;;;;;15.40;3.20;;;;;;;27.77;41.52;99905.25;105769;1254;70911;-43
2023/06/09 06:59:43;;;;;;;8.70;3.50;;;;;;;27.60;42.75;100064.04;105788;1254;60415;-44
2023/06/09 07:02:10;;;;;;;24.30;3.60;;;;;;;27.69;43.96;100226.45;105912;1254;60462;-44
2023/06/09 07:04:38;;;;;;;21.30;3.70;;;;;;;27.83;43.79;100228.25;105830;1257;73764;-44
2023/06/09 07:07:06;;;;;;;5.30;2.80;;;;;;;27.83;43.12;100147.10;105835;1257;65142;-44
2023/06/09 07:09:33;;;;;;;17.20;2.90;;;;;;;27.89;42.51;100099.95;105874;1256;71471;-44
2023/06/09 07:12:01;;;;;;;6.80;2.40;;;;;;;27.96;42.76;100134.65;105666;1259;60475;-45
2023/06/09 07:14:33;;;;;;;20.90;3.50;;;;;;;28.01;42.48;100087.19;106000;1253;60332;-46
2023/06/09 07:17:01;;;;;;;21.90;4.60;;;;;;;28.10;42.12;100063.99;105813;1257;73820;-44
2023/06/09 07:19:29;;;;;;;16.60;2.60;;;;;;;28.18;40.37;99859.39;105934;1254;63878;-49
2023/06/09 07:21:57;;;;;;;12.10;2.70;;;;;;;28.03;39.51;99717.95;105906;1256;71382;-43
2023/06/09 07:24:25;;;;;;;13.50;2.60;;;;;;;27.89;39.80;99775.16;105800;1253;60504;-44
2023/06/09 07:26:53;;;;;;;12.30;2.80;;;;;;;27.89;39.89;99789.94;105854;1256;60531;-47
2023/06/09 07:29:21;;;;;;;5.60;2.60;;;;;;;27.88;40.74;99907.48;105823;1254;73925;-44
2023/06/09 07:31:48;;;;;;;13.50;3.00;;;;;;;27.96;40.50;99909.26;105899;1254;64453;-44
2023/06/09 07:34:16;;;;;;;7.30;2.30;;;;;;;28.02;39.61;99807.40;105875;1254;72689;-44
2023/06/09 07:36:50;;;;;;;11.80;3.20;;;;;;;28.10;39.80;99789.86;105939;1256;60469;-44
2023/06/09 07:39:17;;;;;;;7.60;2.60;;;;;;;28.28;40.60;99909.39;105894;1256;60350;-45
2023/06/09 07:41:45;;;;;;;16.10;2.90;;;;;;;28.52;39.39;99781.17;105796;1257;71971;-45
2023/06/09 07:44:13;;;;;;;11.40;2.20;;;;;;;28.68;39.26;99759.05;105943;1256;63975;-45
2023/06/09 07:46:41;;;;;;;10.30;2.60;;;;;;;28.76;38.93;99673.99;105690;1254;72598;-45
2023/06/09 07:49:09;;;;;;;23.30;3.10;;;;;;;28.87;38.29;99647.90;105868;1256;60456;-44
2023/06/09 07:51:37;;;;;;;23.60;3.70;;;;;;;28.88;39.16;99701.47;105661;1254;60332;-45
2023/06/09 07:54:07;;;;;;;13.20;2.60;;;;;;;28.90;38.83;99717.02;105811;1257;72849;-45
2023/06/09 07:56:36;;;;;;;15.40;2.60;;;;;;;28.95;38.85;99702.27;105719;1257;65135;-43
2023/06/09 07:59:05;;;;;;;11.40;3.00;;;;;;;29.06;38.46;99677.72;105769;1255;71557;-44
2023/06/09 08:01:33;;;;;;;14.50;3.30;;;;;;;29.21;37.48;99526.10;105583;1254;60459;-44
2023/06/09 08:04:02;;;;;;;31.00;3.60;;;;;;;29.25;37.09;99516.21;105843;1253;60518;-44
2023/06/09 08:06:30;;;;;;;34.20;4.00;;;;;;;29.19;36.82;99456.77;105763;1253;72592;-43
2023/06/09 08:08:58;;;;;;;11.50;3.20;;;;;;;29.05;36.78;99449.69;105643;1254;64146;-43
2023/06/09 08:11:26;;;;;;;7.70;2.30;;;;;;;28.91;36.66;99460.56;105663;1254;70693;-44
2023/06/09 08:13:54;;;;;;;10.70;2.40;;;;;;;28.77;37.22;99490.47;105836;1257;60535;-44
2023/06/09 08:16:21;;;;;;;33.00;3.70;;;;;;;28.60;36.58;99458.13;105658;1253;60400;-44
2023/06/09 08:18:49;;;;;;;59.00;4.80;;;;;;;28.38;37.83;99566.46;105623;1253;72709;-45
2023/06/09 08:21:19;;;;;;;66.60;4.80;;;;;;;28.29;38.15;99650.85;105709;1254;63935;-46
2023/06/09 08:23:46;;;;;;;21.40;3.40;;;;;;;28.35;38.85;99767.89;105648;1257;71807;-47
2023/06/09 08:26:14;;;;;;;5.90;2.10;;;;;;;28.53;38.11;99696.81;105431;1259;60486;-45
2023/06/09 08:28:42;;;;;;;36.10;3.80;;;;;;;28.77;38.75;99731.84;105694;1254;60621;-46
2023/06/09 08:31:10;;;;;;;26.10;3.40;;;;;;;29.03;38.82;99773.30;105708;1253;72619;-45
2023/06/09 08:33:39;;;;;;;21.20;3.10;;;;;;;29.34;37.92;99687.80;105656;1259;63995;-45
2023/06/09 08:36:07;;;;;;;19.10;3.10;;;;;;;29.43;37.41;99583.80;105703;1254;71379;-45
2023/06/09 08:38:35;;;;;;;18.10;3.00;;;;;;;29.42;37.39;99592.59;105756;1253;60405;-44
2023/06/09 08:41:10;;;;;;;30.10;3.70;;;;;;;29.45;38.30;99691.38;105749;1257;60539;-44
2023/06/09 08:43:37;;;;;;;16.10;3.00;;;;;;;29.62;37.14;99601.93;105761;1257;73791;-44
2023/06/09 08:46:06;;;;;;;11.60;2.60;;;;;;;29.68;35.47;99372.67;105613;1252;64046;-45
2023/06/09 08:48:35;;;;;;;16.30;2.30;;;;;;;29.63;35.88;99357.92;105823;1254;72620;-45
2023/06/09 08:51:02;;;;;;;8.30;2.20;;;;;;;29.80;36.60;99485.75;105735;1257;60469;-43
2023/06/09 08:53:31;;;;;;;5.90;2.00;;;;;;;30.09;35.16;99322.42;105901;1253;60398;-43
2023/06/09 08:56:00;;;;;;;8.80;1.90;;;;;;;30.12;33.29;99037.38;105741;1259;72573;-43
2023/06/09 08:58:27;;;;;;;31.30;3.30;;;;;;;29.95;33.84;99050.36;105897;1254;65223;-43
2023/06/09 09:00:55;;;;;;;19.10;2.90;;;;;;;30.04;34.44;99139.51;105716;1257;70991;-42
2023/06/09 09:03:23;;;;;;;34.10;3.60;;;;;;;30.20;34.88;99219.18;105719;1259;60435;-42
2023/06/09 09:05:51;;;;;;;29.30;2.90;;;;;;;30.35;34.23;99132.83;105736;1254;60355;-43
2023/06/09 09:08:19;;;;;;;6.00;2.10;;;;;;;30.40;34.85;99223.03;105651;1257;73154;-43
2023/06/09 09:10:47;;;;;;;27.50;2.70;;;;;;;30.47;33.75;99089.23;105739;1254;64789;-43
2023/06/09 09:13:15;;;;;;;59.90;4.30;;;;;;;30.48;33.36;99008.05;105681;1254;73146;-42
2023/06/09 09:15:47;;;;;;;30.40;3.20;;;;;;;30.46;33.61;99046.23;105646;1255;60543;-43
2023/06/09 09:18:17;;;;;;;67.40;5.10;;;;;;;30.48;34.98;99182.04;105920;1254;60485;-44
2023/06/09 09:20:44;;;;;;;16.20;3.10;;;;;;;30.57;35.68;99332.71;105715;1257;73593;-43
2023/06/09 09:23:12;;;;;;;10.20;1.90;;;;;;;30.67;34.30;99173.52;105694;1253;63901;-44
2023/06/09 09:25:40;;;;;;;4.20;1.90;;;;;;;30.73;33.07;98991.91;105679;1254;72662;-44
2023/06/09 09:28:10;;;;;;;17.90;2.30;;;;;;;30.79;33.61;99021.80;105697;1259;60387;-44
2023/06/09 09:30:47;;;;;;;34.70;3.40;;;;;;;30.82;34.82;99156.05;105739;1257;60492;-44
2023/06/09 09:33:18;;;;;;;11.70;3.00;;;;;;;30.88;33.99;99129.63;105761;1257;73753;-44
2023/06/09 09:35:50;;;;;;;13.60;2.40;;;;;;;30.76;34.02;99082.02;105692;1257;65315;-44
2023/06/09 09:38:24;;;;;;;41.60;4.00;;;;;;;30.61;33.34;99040.04;105704;1254;71418;-44
2023/06/09 09:40:52;;;;;;;19.80;2.90;;;;;;;30.57;34.18;99127.74;105701;1257;60431;-43
2023/06/09 09:43:21;;;;;;;15.70;2.90;;;;;;;30.69;34.17;99126.56;105752;1253;60428;-45
2023/06/09 09:45:50;;;;;;;17.20;2.90;;;;;;;30.83;35.13;99237.20;105782;1257;72735;-43
2023/06/09 09:48:21;;;;;;;8.10;2.30;;;;;;;30.96;34.13;99143.91;105738;1257;65357;-44
2023/06/09 09:50:51;;;;;;;9.60;2.60;;;;;;;31.06;34.21;99135.36;105759;1254;71426;-44
2023/06/09 09:53:23;;;;;;;12.90;2.70;;;;;;;31.13;33.94;99138.37;105703;1253;60527;-44
2023/06/09 09:55:55;;;;;;;4.40;2.20;;;;;;;31.28;33.32;99056.56;105872;1256;60613;-44
2023/06/09 09:58:29;;;;;;;27.70;3.00;;;;;;;31.43;34.29;99122.59;105796;1254;72616;-43
2023/06/09 10:01:03;;;;;;;21.60;3.10;;;;;;;31.61;34.43;99170.48;105956;1254;65130;-44
2023/06/09 10:03:33;;;;;;;17.40;2.80;;;;;;;31.65;33.54;99063.18;105891;1254;71424;-44
2023/06/09 10:06:03;;;;;;;35.30;3.40;;;;;;;31.52;32.42;98935.95;105707;1253;60517;-44
2023/06/09 10:08:31;;;;;;;19.00;2.70;;;;;;;31.05;33.60;99036.31;105741;1254;60374;-45
2023/06/09 10:11:02;;;;;;;42.20;4.60;;;;;;;30.72;34.66;99180.69;105922;1256;72280;-44
2023/06/09 10:13:30;;;;;;;53.10;4.50;;;;;;;30.56;34.51;99191.25;105840;1253;64039;-44
2023/06/09 10:15:58;;;;;;;25.30;3.50;;;;;;;30.47;34.27;99173.80;105670;1260;71426;-45
2023/06/09 10:18:26;;;;;;;30.20;3.50;;;;;;;30.31;34.26;99179.67;105743;1258;60524;-45
2023/06/09 10:20:54;;;;;;;10.00;2.50;;;;;;;30.20;34.06;99157.30;105703;1254;60329;-45
2023/06/09 10:23:23;;;;;;;12.40;2.20;;;;;;;30.27;34.53;99198.34;105731;1254;73829;-44
2023/06/09 10:25:51;;;;;;;5.70;2.00;;;;;;;30.53;34.05;99163.84;105884;1252;64069;-44
2023/06/09 10:28:20;;;;;;;12.10;2.00;;;;;;;30.85;33.70;99090.33;105719;1257;72642;-45
2023/06/09 10:30:48;;;;;;;6.40;2.10;;;;;;;31.14;34.10;99135.66;105876;1253;60492;-45
2023/06/09 10:33:26;;;;;;;7.10;2.20;;;;;;;31.43;33.97;99120.00;105689;1257;60463;-45
2023/06/09 10:35:58;;;;;;;35.50;3.40;;;;;;;31.59;32.65;98964.45;105826;1254;73588;-45
2023/06/09 10:38:29;;;;;;;6.00;1.90;;;;;;;31.46;33.07;98964.14;105912;1257;65161;-45
2023/06/09 10:41:00;;;;;;;28.50;3.40;;;;;;;31.46;34.11;99108.17;105895;1253;72736;-45
2023/06/09 10:43:30;;;;;;;23.70;2.70;;;;;;;31.51;33.51;99064.54;105736;1254;60503;-45
2023/06/09 10:45:58;;;;;;;7.00;1.80;;;;;;;31.58;33.44;99041.40;105706;1258;60876;-46
2023/06/09 10:48:40;;;;;;;69.30;3.50;;;;;;;31.71;33.76;99088.88;105541;1253;72549;-45
2023/06/09 10:51:41;;;;;;;9.40;2.00;;;;;;;32.02;33.29;99008.45;105708;1254;64506;-50
2023/06/09 10:54:09;;;;;;;47.40;6.40;;;;;;;32.22;32.36;98918.86;105510;1254;71487;-45
2023/06/09 10:56:42;;;;;;;67.90;9.20;;;;;;;32.09;31.78;98817.29;105692;1257;60433;-45
2023/06/09 10:59:30;;;;;;;28.90;2.80;;;;;;;31.85;31.99;98840.48;105732;1254;60613;-45
2023/06/09 11:02:01;;;;;;;19.00;2.70;;;;;;;31.60;31.55;98775.85;105747;1254;72633;-45
2023/06/09 11:04:43;;;;;;;6.50;2.20;;;;;;;31.52;32.49;98863.53;105749;1254;64086;-44
2023/06/09 11:07:20;;;;;;;64.00;5.80;;;;;;;31.77;32.31;98889.17;105713;1257;71405;-46
2023/06/09 11:09:50;;;;;;;42.40;4.20;;;;;;;32.05;32.14;98857.80;105733;1257;60616;-45
2023/06/09 11:12:29;;;;;;;19.80;2.90;;;;;;;32.17;31.99;98811.45;105704;1257;60344;-45
2023/06/09 11:14:58;;;;;;;22.90;3.10;;;;;;;32.32;31.44;98776.08;105695;1254;73969;-45
2023/06/09 11:17:41;;;;;;;38.20;6.70;;;;;;;32.48;31.46;98756.09;105902;1253;63926;-48
2023/06/09 12:16:26;;;;;;;44.50;4.10;;;;;;;32.66;30.83;98668.70;102819;1291;601443;-44